Time;durP1;ratioP1;P1;durP2;ratioP2;P2;SDS_P1;SDS_P2;PMS_P1;PMS_P2;Temp;Humidity;BMP_temperature;BMP_pressure;BME280_temperature;BME280_humidity;BME280_pressure;Samples;Min_cycle;Max_cycle;Signal;HPM_P1;HPM_P2
2023/01/13 00:00:44;;;;;;;1.85;1.00;;;20.80;64.50;;;;;;5072752;27;88262;-92
2023/01/13 00:03:10;;;;;;;1.85;1.10;;;20.80;64.40;;;;;;5054932;27;86441;-90
2023/01/13 00:05:36;;;;;;;3.33;1.45;;;20.80;64.50;;;;;;5071626;27;85819;-91
2023/01/13 00:08:05;;;;;;;2.72;1.27;;;20.70;64.40;;;;;;5072886;27;86098;-93
2023/01/13 00:10:39;;;;;;;2.00;1.10;;;20.70;64.50;;;;;;5067970;27;85749;-95
2023/01/13 00:13:05;;;;;;;2.55;1.17;;;20.70;64.60;;;;;;5072047;27;85955;-93
2023/01/13 00:15:32;;;;;;;2.20;1.35;;;20.70;64.50;;;;;;5047225;27;86438;-96
2023/01/13 00:17:57;;;;;;;2.42;1.25;;;20.70;64.60;;;;;;5050239;27;86376;-93
2023/01/13 00:20:23;;;;;;;2.45;1.13;;;20.70;64.70;;;;;;5050506;27;87119;-95
2023/01/13 00:22:49;;;;;;;2.33;0.95;;;20.70;64.80;;;;;;5029744;27;86459;-93
2023/01/13 00:25:15;;;;;;;3.40;1.27;;;20.70;64.80;;;;;;5039201;27;85793;-89
2023/01/13 00:27:40;;;;;;;2.03;1.10;;;20.60;64.60;;;;;;5049337;27;87766;-92
2023/01/13 00:30:07;;;;;;;1.63;0.93;;;20.60;64.70;;;;;;5036243;27;86754;-91
2023/01/13 00:32:33;;;;;;;2.22;1.10;;;20.60;64.60;;;;;;5032280;27;85781;-92
2023/01/13 00:34:59;;;;;;;1.73;1.05;;;20.60;64.70;;;;;;5017713;28;86251;-95
2023/01/13 00:37:25;;;;;;;2.10;1.25;;;20.60;64.90;;;;;;5028569;28;86621;-94
2023/01/13 00:39:51;;;;;;;1.90;1.20;;;20.60;64.90;;;;;;5029930;28;87376;-90
2023/01/13 00:45:10;;;;;;;3.10;1.00;;;20.50;64.70;;;;;;5029948;28;86428;-93
2023/01/13 00:47:36;;;;;;;1.95;1.20;;;20.50;64.80;;;;;;5030187;27;86333;-92
2023/01/13 00:50:02;;;;;;;2.03;1.13;;;20.50;64.60;;;;;;5029903;27;85983;-95
2023/01/13 00:52:27;;;;;;;2.03;1.13;;;20.50;64.70;;;;;;5031924;27;86144;-94
2023/01/13 00:54:53;;;;;;;2.03;1.20;;;20.50;64.90;;;;;;5032363;28;86174;-90
2023/01/13 00:57:18;;;;;;;1.65;1.02;;;20.50;64.90;;;;;;5029478;28;86263;-93
2023/01/13 00:59:44;;;;;;;1.92;1.02;;;20.50;64.80;;;;;;5030296;27;86266;-91
2023/01/13 01:02:10;;;;;;;1.80;0.98;;;20.50;64.90;;;;;;5028677;27;86478;-92
2023/01/13 01:04:35;;;;;;;2.50;0.98;;;20.40;64.70;;;;;;5030194;27;86417;-96
2023/01/13 01:07:01;;;;;;;2.03;1.05;;;20.50;64.80;;;;;;5032437;28;86499;-91
2023/01/13 01:09:31;;;;;;;3.00;1.30;;;20.50;64.80;;;;;;5029189;28;86289;-94
2023/01/13 01:12:00;;;;;;;1.20;0.90;;;20.40;64.60;;;;;;5030899;27;85748;-92
2023/01/13 01:14:27;;;;;;;1.58;1.05;;;20.40;64.80;;;;;;5031269;27;86118;-91
2023/01/13 01:16:53;;;;;;;1.92;1.17;;;20.40;64.80;;;;;;5029934;27;85740;-90
2023/01/13 01:19:19;;;;;;;1.42;1.02;;;20.40;64.80;;;;;;5030114;28;89706;-90
2023/01/13 01:21:45;;;;;;;2.22;1.10;;;20.40;65.00;;;;;;5031615;27;85837;-91
2023/01/13 01:24:19;;;;;;;1.70;0.93;;;20.40;64.90;;;;;;5029772;27;86136;-93
2023/01/13 01:26:45;;;;;;;2.00;1.00;;;20.40;64.70;;;;;;5024599;27;86294;-92
2023/01/13 01:29:14;;;;;;;1.52;0.95;;;20.40;64.80;;;;;;5033581;27;86932;-93
2023/01/13 01:31:39;;;;;;;1.73;1.13;;;20.40;64.70;;;;;;5032232;27;86541;-93
2023/01/13 01:34:05;;;;;;;3.53;1.10;;;20.40;64.60;;;;;;5028580;28;85673;-95
2023/01/13 01:36:32;;;;;;;1.83;0.90;;;20.30;64.60;;;;;;5028087;27;86566;-92
2023/01/13 01:38:58;;;;;;;1.38;0.90;;;20.30;64.70;;;;;;5032388;27;87578;-93
2023/01/13 01:41:27;;;;;;;1.55;0.95;;;20.30;64.80;;;;;;5032041;27;85939;-93
2023/01/13 01:43:58;;;;;;;2.33;0.80;;;20.30;64.80;;;;;;5031305;27;86199;-92
2023/01/13 01:46:40;;;;;;;2.30;1.10;;;20.30;64.70;;;;;;5028624;27;86498;-94
2023/01/13 01:49:30;;;;;;;2.28;1.23;;;20.30;64.70;;;;;;5045845;27;88521;-92
2023/01/13 01:52:02;;;;;;;1.77;1.10;;;20.30;64.60;;;;;;5029000;28;87384;-89
2023/01/13 01:54:36;;;;;;;1.45;1.00;;;20.20;64.70;;;;;;5028982;27;85826;-92
2023/01/13 01:57:02;;;;;;;2.45;1.05;;;20.20;64.70;;;;;;5030236;27;88112;-93
2023/01/13 01:59:31;;;;;;;2.35;1.00;;;20.20;64.90;;;;;;5027272;27;86274;-93
2023/01/13 02:01:56;;;;;;;0.90;0.77;;;20.20;64.60;;;;;;5028391;27;86047;-95
2023/01/13 02:04:53;;;;;;;1.90;1.05;;;20.20;64.60;;;;;;5030423;27;85104;-92
2023/01/13 02:07:21;;;;;;;1.73;1.00;;;20.20;64.70;;;;;;5030160;28;88694;-94
2023/01/13 02:09:48;;;;;;;1.85;1.10;;;20.10;64.70;;;;;;5030340;28;90987;-92
2023/01/13 02:12:33;;;;;;;1.33;1.00;;;20.20;64.70;;;;;;5031653;27;85783;-94
2023/01/13 02:15:10;;;;;;;1.67;1.02;;;20.10;64.50;;;;;;5032497;27;85736;-88
2023/01/13 02:18:07;;;;;;;1.67;1.10;;;20.20;64.60;;;;;;5031509;27;87497;-91
2023/01/13 02:20:33;;;;;;;2.05;0.85;;;20.10;64.70;;;;;;5032831;27;87045;-94
2023/01/13 02:26:38;;;;;;;1.55;1.20;;;20.10;64.80;;;;;;5033776;27;87042;-91
2023/01/13 02:32:33;;;;;;;2.05;1.10;;;20.10;64.90;;;;;;5037919;27;86111;-94
2023/01/13 02:35:20;;;;;;;1.50;0.77;;;20.10;65.00;;;;;;5026569;27;86002;-91
2023/01/13 02:38:12;;;;;;;2.10;0.90;;;20.10;64.90;;;;;;5041612;27;86454;-91
2023/01/13 02:40:49;;;;;;;2.42;1.30;;;20.10;64.70;;;;;;5009731;28;87966;-92
2023/01/13 02:46:28;;;;;;;2.03;1.08;;;20.10;64.70;;;;;;5010916;28;86297;-92
2023/01/13 02:48:56;;;;;;;1.70;1.05;;;20.00;64.80;;;;;;5006306;28;86403;-95
2023/01/13 02:51:25;;;;;;;1.20;1.00;;;20.00;64.70;;;;;;5006766;28;87592;-93
2023/01/13 02:53:59;;;;;;;1.63;0.75;;;20.00;64.70;;;;;;5007352;28;93161;-96
2023/01/13 02:56:26;;;;;;;2.10;1.10;;;20.00;64.60;;;;;;5006706;28;86275;-92
2023/01/13 02:58:55;;;;;;;1.52;1.00;;;20.00;64.60;;;;;;5006213;28;85860;-91
2023/01/13 03:01:21;;;;;;;0.90;0.80;;;20.00;64.50;;;;;;5006613;28;89419;-94
2023/01/13 03:03:48;;;;;;;2.05;0.90;;;20.00;64.70;;;;;;4990818;28;93856;-90
2023/01/13 03:06:29;;;;;;;2.17;1.13;;;20.00;64.80;;;;;;4989716;28;86616;-92
2023/01/13 03:09:29;;;;;;;1.67;0.80;;;20.00;64.80;;;;;;5005984;28;85830;-92
2023/01/13 03:12:11;;;;;;;1.77;0.90;;;20.00;64.70;;;;;;4988580;28;87462;-95
2023/01/13 03:14:58;;;;;;;1.23;0.90;;;20.00;64.80;;;;;;4989175;28;86136;-93
2023/01/13 03:17:39;;;;;;;2.33;0.98;;;19.90;64.80;;;;;;5000351;27;85778;-94
2023/01/13 03:20:13;;;;;;;3.25;1.10;;;19.90;64.80;;;;;;5011512;27;86346;-93
2023/01/13 03:22:46;;;;;;;1.65;1.08;;;19.90;64.60;;;;;;5028200;27;86263;-91
2023/01/13 03:25:39;;;;;;;0.82;0.60;;;19.90;64.70;;;;;;5010074;28;86023;-90
2023/01/13 03:28:19;;;;;;;1.55;0.98;;;19.90;64.50;;;;;;5025523;28;91406;-90
2023/01/13 03:30:57;;;;;;;1.80;0.77;;;19.90;64.60;;;;;;5008992;27;86467;-88
2023/01/13 03:33:29;;;;;;;1.20;0.80;;;19.90;64.60;;;;;;5035432;27;86670;-92
2023/01/13 03:36:10;;;;;;;1.00;0.90;;;19.90;64.60;;;;;;5010136;27;87095;-94
2023/01/13 03:38:50;;;;;;;1.98;1.10;;;19.90;64.60;;;;;;5012351;27;85630;-92
2023/01/13 03:41:25;;;;;;;1.30;0.80;;;19.90;64.70;;;;;;5009869;27;86232;-94
2023/01/13 03:44:32;;;;;;;1.67;1.05;;;19.80;64.60;;;;;;5026047;27;87499;-90
2023/01/13 03:47:28;;;;;;;1.80;1.17;;;19.80;64.60;;;;;;5016481;27;86190;-91
2023/01/13 03:50:14;;;;;;;1.40;0.85;;;19.90;64.60;;;;;;5045290;27;86143;-90
2023/01/13 03:53:06;;;;;;;1.70;1.00;;;19.80;64.30;;;;;;5046491;27;86189;-92
2023/01/13 03:55:39;;;;;;;1.42;0.90;;;19.80;65.10;;;;;;5030463;27;87297;-90
2023/01/13 03:58:20;;;;;;;1.30;0.80;;;19.80;64.40;;;;;;5030826;28;86717;-91
2023/01/13 04:01:14;;;;;;;1.15;0.80;;;19.80;64.50;;;;;;5029849;28;86553;-93
2023/01/13 04:03:52;;;;;;;1.02;0.80;;;19.80;64.40;;;;;;5009394;28;85620;-92
2023/01/13 04:06:24;;;;;;;1.75;0.80;;;19.80;64.50;;;;;;5006908;28;87531;-93
2023/01/13 04:09:02;;;;;;;1.58;1.02;;;19.80;64.70;;;;;;5008499;28;88998;-93
2023/01/13 04:11:34;;;;;;;1.70;1.02;;;19.80;64.50;;;;;;5008680;28;86205;-92
2023/01/13 04:14:19;;;;;;;2.50;1.10;;;19.80;64.50;;;;;;5009289;28;85991;-95
2023/01/13 04:16:47;;;;;;;0.93;0.80;;;19.80;64.50;;;;;;4999297;28;87479;-92
2023/01/13 04:19:13;;;;;;;1.08;0.77;;;19.80;64.70;;;;;;5001592;28;88959;-91
2023/01/13 04:21:38;;;;;;;1.30;0.98;;;19.80;64.80;;;;;;5007539;28;90029;-94
2023/01/13 04:24:04;;;;;;;1.88;1.05;;;19.70;64.70;;;;;;5000579;28;87714;-93
2023/01/13 04:26:30;;;;;;;1.85;0.80;;;19.70;64.50;;;;;;5008127;28;89400;-91
2023/01/13 04:28:56;;;;;;;1.50;0.88;;;19.70;64.50;;;;;;5008250;28;86492;-93
2023/01/13 04:31:21;;;;;;;1.77;0.88;;;19.70;64.40;;;;;;5008510;28;86627;-87
2023/01/13 04:33:47;;;;;;;2.25;1.33;;;19.70;65.20;;;;;;5010954;28;85828;-91
2023/01/13 04:36:14;;;;;;;1.48;0.82;;;19.70;64.90;;;;;;5009210;28;87587;-94
2023/01/13 04:38:40;;;;;;;1.13;0.70;;;19.70;64.60;;;;;;5009204;28;87221;-91
2023/01/13 04:41:05;;;;;;;1.23;0.70;;;19.70;64.70;;;;;;5036482;27;86107;-93
2023/01/13 04:43:31;;;;;;;1.08;0.75;;;19.70;64.70;;;;;;5030491;28;86248;-93
2023/01/13 04:45:57;;;;;;;2.13;0.88;;;19.70;64.50;;;;;;5030765;28;86524;-94
2023/01/13 04:48:22;;;;;;;1.63;0.88;;;19.60;64.50;;;;;;5030858;27;85763;-93
2023/01/13 04:51:08;;;;;;;2.38;1.15;;;19.60;64.50;;;;;;5029910;28;85641;-93
2023/01/13 04:53:34;;;;;;;1.40;0.82;;;19.60;64.60;;;;;;5029965;27;86307;-92
2023/01/13 04:56:00;;;;;;;1.88;0.80;;;19.60;64.80;;;;;;5029888;27;85851;-91
2023/01/13 04:58:26;;;;;;;2.20;1.15;;;19.60;64.80;;;;;;5030227;27;85920;-92
2023/01/13 05:00:51;;;;;;;1.95;0.85;;;19.60;64.80;;;;;;5029866;28;86538;-93
2023/01/13 05:03:17;;;;;;;2.10;0.90;;;19.60;64.60;;;;;;5031270;27;85723;-92
2023/01/13 05:05:43;;;;;;;1.75;0.85;;;19.60;64.80;;;;;;5030815;27;86364;-94
2023/01/13 05:08:09;;;;;;;1.13;0.80;;;19.60;64.90;;;;;;5030310;27;86520;-92
2023/01/13 05:10:35;;;;;;;2.55;1.10;;;19.60;64.60;;;;;;5031085;28;85766;-93
2023/01/13 05:18:38;;;;;;;1.58;0.88;;;19.60;64.50;;;;;;5030444;27;85913;-92
2023/01/13 05:25:20;;;;;;;1.73;1.00;;;19.60;64.40;;;;;;5032200;27;86202;-90
2023/01/13 05:26:34;;;;;;;2.38;1.00;;;19.60;64.50;;;;;;5031138;27;86281;-93
2023/01/13 05:29:02;;;;;;;1.45;0.88;;;19.60;64.40;;;;;;5030831;27;86783;-93
2023/01/13 05:31:28;;;;;;;1.70;1.00;;;19.60;64.40;;;;;;5045776;27;85912;-92
2023/01/13 05:33:53;;;;;;;2.03;1.10;;;19.60;64.40;;;;;;5047641;27;86272;-91
2023/01/13 05:36:19;;;;;;;1.17;0.70;;;19.60;64.40;;;;;;5046338;27;87526;-92
2023/01/13 05:38:45;;;;;;;1.48;0.70;;;19.60;64.40;;;;;;5047264;27;89313;-92
2023/01/13 05:43:54;;;;;;;1.90;0.80;;;19.50;64.40;;;;;;5048294;27;86010;-92
2023/01/13 05:46:20;;;;;;;1.77;0.80;;;19.50;65.30;;;;;;5049605;27;87413;-90
2023/01/13 05:48:46;;;;;;;2.15;1.15;;;19.50;64.50;;;;;;5049733;27;86617;-93
2023/01/13 05:51:12;;;;;;;1.30;0.98;;;19.50;64.30;;;;;;5048933;27;86286;-92
2023/01/13 05:53:41;;;;;;;1.58;0.80;;;19.50;64.50;;;;;;5048679;27;86257;-90
2023/01/13 05:56:27;;;;;;;1.43;0.70;;;19.50;64.50;;;;;;5048808;27;87600;-92
2023/01/13 05:58:52;;;;;;;1.45;0.80;;;19.50;64.60;;;;;;5048161;27;89592;-92
2023/01/13 06:01:18;;;;;;;1.48;0.82;;;19.50;64.30;;;;;;5051160;27;86126;-94
2023/01/13 06:03:44;;;;;;;1.98;1.00;;;19.50;64.40;;;;;;5047784;27;86553;-90
2023/01/13 06:06:10;;;;;;;1.35;0.90;;;19.50;64.40;;;;;;5030183;27;86133;-92
2023/01/13 06:08:35;;;;;;;1.08;0.60;;;19.50;64.40;;;;;;5031184;27;86740;-94
2023/01/13 06:11:01;;;;;;;1.00;0.70;;;19.40;64.30;;;;;;5023625;27;85691;-93
2023/01/13 06:13:26;;;;;;;1.20;0.70;;;19.50;64.40;;;;;;5039978;27;86322;-91
2023/01/13 06:15:56;;;;;;;2.03;0.98;;;19.40;64.30;;;;;;5030490;28;86992;-93
2023/01/13 06:18:23;;;;;;;1.25;0.88;;;19.40;64.20;;;;;;5036627;27;89136;-93
2023/01/13 06:20:48;;;;;;;2.35;0.80;;;19.40;64.50;;;;;;5029514;27;86260;-92
2023/01/13 06:23:14;;;;;;;1.35;0.77;;;19.40;64.40;;;;;;5030553;27;85771;-93
2023/01/13 06:26:16;;;;;;;1.95;1.15;;;19.40;64.40;;;;;;5031827;27;87920;-92
2023/01/13 06:28:42;;;;;;;1.40;0.80;;;19.40;64.50;;;;;;5029049;27;86790;-91
2023/01/13 06:31:09;;;;;;;1.20;0.63;;;19.40;64.40;;;;;;5077413;22;86471;-93
2023/01/13 06:33:41;;;;;;;1.63;0.70;;;19.40;64.30;;;;;;4999357;28;85940;-93
2023/01/13 06:36:21;;;;;;;1.67;0.93;;;19.40;64.40;;;;;;5013705;27;89370;-93
2023/01/13 06:39:00;;;;;;;;;;;;;;;;;;;;;
2023/01/13 06:44:13;;;;;;;2.17;1.00;;;19.50;62.80;;;;;;5000280;28;86310;-91
2023/01/13 06:46:38;;;;;;;1.27;0.73;;;19.60;63.60;;;;;;4997789;28;89261;-90
2023/01/13 06:49:04;;;;;;;4.13;0.80;;;19.60;63.60;;;;;;4998141;28;88572;-91
2023/01/13 06:51:30;;;;;;;2.70;1.05;;;19.80;63.10;;;;;;4998438;28;87454;-89
2023/01/13 06:53:55;;;;;;;1.15;0.90;;;19.90;63.10;;;;;;4997370;28;86239;-93
2023/01/13 06:56:21;;;;;;;2.70;1.05;;;20.00;63.00;;;;;;4997867;28;90180;-92
2023/01/13 06:58:46;;;;;;;1.60;1.13;;;20.20;62.80;;;;;;4997602;28;89402;-89
2023/01/13 07:01:12;;;;;;;0.98;0.70;;;20.40;62.30;;;;;;4997809;28;85719;-92
2023/01/13 07:03:39;;;;;;;1.80;0.80;;;20.50;61.90;;;;;;4997416;28;85963;-91
2023/01/13 07:06:05;;;;;;;3.08;0.80;;;20.60;61.70;;;;;;4996893;28;90136;-93
2023/01/13 07:08:51;;;;;;;1.92;0.80;;;20.70;61.40;;;;;;4987067;28;89348;-92
2023/01/13 07:11:17;;;;;;;1.17;0.73;;;20.80;61.40;;;;;;4997524;28;86271;-92
2023/01/13 07:16:27;;;;;;;2.97;0.80;;;20.90;61.20;;;;;;5015714;28;86519;-91
2023/01/13 07:18:53;;;;;;;1.48;0.93;;;20.90;61.40;;;;;;4998033;28;89526;-92
2023/01/13 07:21:19;;;;;;;1.85;1.02;;;20.90;61.10;;;;;;4987024;28;87102;-92
2023/01/13 07:23:46;;;;;;;1.15;0.93;;;20.90;61.20;;;;;;4999112;28;86480;-95
2023/01/13 07:26:12;;;;;;;2.67;1.13;;;20.90;61.10;;;;;;4993715;28;87661;-93
2023/01/13 07:28:38;;;;;;;2.97;0.95;;;20.90;60.40;;;;;;4978465;28;88536;-89
2023/01/13 07:31:18;;;;;;;4.97;1.30;;;20.80;60.20;;;;;;4994943;28;86432;-89
2023/01/13 07:33:44;;;;;;;3.85;0.98;;;20.70;58.50;;;;;;5090133;22;85860;-91
2023/01/13 07:36:10;;;;;;;4.47;1.20;;;20.80;58.40;;;;;;5043739;28;88943;-91
2023/01/13 07:38:37;;;;;;;3.70;1.13;;;20.80;58.50;;;;;;5037323;27;87166;-91
2023/01/13 07:43:30;;;;;;;5.88;1.25;;;20.70;59.20;;;;;;5038017;27;86461;-95
2023/01/13 07:43:51;;;;;;;3.33;1.10;;;20.60;60.50;;;;;;5038203;27;86150;-94
2023/01/13 07:46:17;;;;;;;2.58;1.25;;;20.60;61.00;;;;;;5039677;27;86940;-93
2023/01/13 07:48:45;;;;;;;4.30;1.40;;;20.50;60.70;;;;;;5038732;27;87755;-90
2023/01/13 07:51:11;;;;;;;5.65;1.95;;;20.50;61.00;;;;;;5038124;27;85974;-93
2023/01/13 07:53:37;;;;;;;4.53;1.50;;;20.50;61.20;;;;;;5038574;27;85703;-91
2023/01/13 07:56:13;;;;;;;4.65;1.38;;;20.40;61.70;;;;;;5037086;27;87686;-93
2023/01/13 07:58:39;;;;;;;4.95;1.33;;;20.40;61.40;;;;;;5036325;27;88729;-94
2023/01/13 08:01:12;;;;;;;4.57;1.58;;;20.40;61.80;;;;;;5037943;28;86510;-91
2023/01/13 08:03:39;;;;;;;7.93;2.97;;;20.30;62.10;;;;;;5035320;27;85837;-95
2023/01/13 08:06:05;;;;;;;6.88;2.00;;;20.30;62.50;;;;;;5036515;27;87914;-93
2023/01/13 08:08:31;;;;;;;5.32;1.55;;;20.40;62.00;;;;;;5036980;27;86844;-92
2023/01/13 08:11:01;;;;;;;5.93;1.77;;;20.40;62.80;;;;;;5029485;27;86811;-93
2023/01/13 08:13:27;;;;;;;4.28;1.48;;;20.50;63.00;;;;;;5035272;27;85953;-91
2023/01/13 08:16:05;;;;;;;8.52;2.38;;;20.60;62.00;;;;;;5038214;27;85964;-89
2023/01/13 08:18:32;;;;;;;7.32;2.03;;;20.60;61.80;;;;;;5041033;27;89116;-90
2023/01/13 08:21:11;;;;;;;4.10;1.67;;;20.60;61.60;;;;;;5037584;27;85679;-91
2023/01/13 08:23:38;;;;;;;6.25;2.05;;;20.70;61.30;;;;;;5037477;27;85739;-93
2023/01/13 08:26:06;;;;;;;5.70;1.98;;;20.70;60.50;;;;;;5037391;27;86513;-94
2023/01/13 08:28:32;;;;;;;12.50;3.72;;;20.80;60.90;;;;;;5037771;27;86343;-90
2023/01/13 08:31:03;;;;;;;12.20;2.88;;;20.70;61.40;;;;;;5040055;28;86409;-95
2023/01/13 08:33:29;;;;;;;5.40;2.20;;;20.60;61.40;;;;;;5084497;22;86135;-93
2023/01/13 08:35:55;;;;;;;9.82;2.58;;;20.60;61.60;;;;;;5036133;27;86466;-92
2023/01/13 08:38:21;;;;;;;10.80;2.58;;;20.50;61.80;;;;;;5037523;27;87086;-95
2023/01/13 08:40:47;;;;;;;5.13;2.33;;;20.60;61.70;;;;;;5037734;27;85732;-94
2023/01/13 08:43:13;;;;;;;6.80;2.10;;;20.50;61.60;;;;;;5038483;28;86438;-90
2023/01/13 08:45:38;;;;;;;9.73;2.85;;;20.50;61.80;;;;;;5037015;27;86083;-93
2023/01/13 08:48:04;;;;;;;9.82;3.13;;;20.50;62.10;;;;;;5035813;27;85644;-91
2023/01/13 08:50:30;;;;;;;10.40;2.75;;;20.60;61.80;;;;;;5034568;27;86469;-92
2023/01/13 08:52:56;;;;;;;9.90;2.42;;;20.60;61.90;;;;;;5036958;27;86045;-90
2023/01/13 08:55:21;;;;;;;7.72;2.45;;;20.60;61.90;;;;;;5037090;27;87587;-87
2023/01/13 08:57:47;;;;;;;11.50;3.30;;;20.50;61.90;;;;;;5035250;28;90225;-93
2023/01/13 09:00:13;;;;;;;9.15;2.55;;;20.50;61.90;;;;;;5036846;27;85725;-93
2023/01/13 09:02:39;;;;;;;10.45;2.53;;;20.50;61.80;;;;;;5035723;28;85644;-91
2023/01/13 09:05:06;;;;;;;12.82;3.22;;;20.60;61.90;;;;;;5035048;27;87517;-92
2023/01/13 09:07:34;;;;;;;10.60;3.35;;;20.60;62.00;;;;;;5036407;27;88983;-94
2023/01/13 09:10:00;;;;;;;8.50;2.83;;;20.60;62.00;;;;;;5037396;28;86349;-92
2023/01/13 09:15:11;;;;;;;12.82;3.30;;;20.60;61.30;;;;;;5036083;27;86207;-94
2023/01/13 09:17:37;;;;;;;8.32;2.88;;;20.60;61.20;;;;;;5035582;27;85928;-93
2023/01/13 09:20:03;;;;;;;10.30;2.85;;;20.60;62.20;;;;;;5036579;27;86073;-91
2023/01/13 09:22:29;;;;;;;11.38;3.00;;;20.60;61.50;;;;;;5036327;27;85830;-94
2023/01/13 09:24:55;;;;;;;5.93;2.45;;;20.60;61.80;;;;;;5036795;28;87361;-93
2023/01/13 09:27:21;;;;;;;10.55;2.97;;;20.60;61.80;;;;;;5035029;27;87977;-93
2023/01/13 09:29:47;;;;;;;7.55;2.53;;;20.60;61.70;;;;;;5034756;28;85683;-90
2023/01/13 09:32:13;;;;;;;11.05;2.85;;;20.60;61.80;;;;;;5036652;27;86344;-88
2023/01/13 09:37:44;;;;;;;8.80;2.67;;;20.60;61.90;;;;;;5047220;27;86385;-93
2023/01/13 09:40:19;;;;;;;8.57;2.85;;;20.60;62.00;;;;;;5035484;27;85725;-92
2023/01/13 09:46:42;;;;;;;16.23;4.15;;;20.60;60.90;;;;;;5035924;27;86706;-92
2023/01/13 09:49:02;;;;;;;13.13;3.83;;;20.60;59.40;;;;;;5035087;28;92276;-94
2023/01/13 09:51:41;;;;;;;16.05;4.20;;;20.70;59.20;;;;;;5035764;27;86489;-91
2023/01/13 09:54:12;;;;;;;;;;;20.60;58.20;;;;;;5036242;27;85786;-93
2023/01/13 09:56:37;;;;;;;13.85;3.70;;;20.70;58.00;;;;;;5034883;28;91314;-94
2023/01/13 09:59:04;;;;;;;13.05;3.63;;;20.70;58.40;;;;;;5035946;27;86823;-90
2023/01/13 10:01:58;;;;;;;13.40;3.28;;;20.60;58.70;;;;;;5034658;27;86244;-94
2023/01/13 10:04:25;;;;;;;11.57;3.58;;;20.60;59.50;;;;;;5035318;27;86120;-93
2023/01/13 10:07:02;;;;;;;12.90;3.28;;;20.50;59.80;;;;;;5013414;28;88472;-93
2023/01/13 10:09:50;;;;;;;10.05;2.97;;;20.50;59.90;;;;;;5027049;28;88645;-90
2023/01/13 10:15:17;;;;;;;10.70;3.22;;;20.50;59.20;;;;;;5013991;28;86723;-91
2023/01/13 10:17:59;;;;;;;26.60;3.47;;;20.60;58.80;;;;;;5012345;28;90189;-90
2023/01/13 10:20:38;;;;;;;13.05;3.10;;;20.70;60.20;;;;;;5012074;28;89734;-86
2023/01/13 10:23:13;;;;;;;;;;;20.70;58.60;;;;;;5011462;28;86330;-87
2023/01/13 10:25:55;;;;;;;11.38;3.03;;;20.70;58.40;;;;;;5013690;28;86146;-90
2023/01/13 10:28:23;;;;;;;10.70;3.33;;;20.70;59.50;;;;;;5013260;28;90642;-89
2023/01/13 10:30:49;;;;;;;11.43;3.60;;;20.60;58.70;;;;;;5012677;28;91254;-90
2023/01/13 10:33:19;;;;;;;10.20;3.67;;;20.60;59.60;;;;;;4998341;28;85798;-86
2023/01/13 10:35:48;;;;;;;19.73;5.57;;;20.60;59.70;;;;;;4990574;28;86699;-86
2023/01/13 10:38:21;;;;;;;16.52;4.45;;;20.60;59.70;;;;;;5000665;28;86120;-85
2023/01/13 10:40:50;;;;;;;21.63;6.82;;;20.70;59.80;;;;;;4999327;28;87439;-86
2023/01/13 10:43:21;;;;;;;19.02;6.57;;;20.80;59.40;;;;;;5003603;28;85715;-88
2023/01/13 10:46:00;;;;;;;17.05;6.20;;;20.80;59.60;;;;;;5000121;28;85819;-88
2023/01/13 10:48:50;;;;;;;11.57;4.95;;;21.00;59.70;;;;;;5011244;28;87523;-89
2023/01/13 10:51:23;;;;;;;16.05;5.72;;;21.20;59.60;;;;;;5011979;28;89752;-89
2023/01/13 10:53:51;;;;;;;18.25;6.15;;;21.20;58.30;;;;;;5015974;28;85705;-88
2023/01/13 10:56:21;;;;;;;12.30;4.95;;;21.20;58.80;;;;;;5016889;28;86173;-89
2023/01/13 10:58:47;;;;;;;16.88;5.45;;;21.20;59.10;;;;;;5015865;28;90428;-89
2023/01/13 11:01:24;;;;;;;16.25;5.65;;;21.20;59.30;;;;;;5017853;28;86400;-89
2023/01/13 11:03:51;;;;;;;15.65;5.72;;;21.10;59.40;;;;;;5017681;28;87935;-88
2023/01/13 11:06:27;;;;;;;21.10;9.15;;;21.10;59.40;;;;;;5017963;28;86375;-86
2023/01/13 11:08:57;;;;;;;19.52;9.50;;;21.10;59.60;;;;;;5017221;28;86318;-89
2023/01/13 11:11:31;;;;;;;;;;;21.00;59.90;;;;;;5015795;28;89494;-89
2023/01/13 11:16:55;;;;;;;37.08;20.08;;;21.00;60.40;;;;;;5016286;28;89183;-89
2023/01/13 11:19:26;;;;;;;35.92;20.30;;;21.00;60.70;;;;;;5015508;28;87548;-89
2023/01/13 11:22:01;;;;;;;36.30;21.25;;;20.90;60.80;;;;;;4995758;28;89679;-88
2023/01/13 11:24:49;;;;;;;36.50;21.45;;;21.00;60.50;;;;;;5011561;28;86174;-85
2023/01/13 11:27:21;;;;;;;39.33;20.60;;;21.00;60.70;;;;;;4999545;28;86202;-88
2023/01/13 11:30:28;;;;;;;32.50;20.20;;;20.90;60.70;;;;;;4999084;28;90726;-89
2023/01/13 11:33:10;;;;;;;37.42;22.60;;;20.90;61.10;;;;;;4936800;28;87112;-88
2023/01/13 11:36:07;;;;;;;35.42;20.83;;;20.80;60.70;;;;;;4965168;28;85992;-85
2023/01/13 11:38:48;;;;;;;35.75;19.75;;;20.80;61.00;;;;;;4893915;28;87047;-89
2023/01/13 11:41:24;;;;;;;37.08;19.75;;;20.80;60.40;;;;;;4880197;28;88065;-89
2023/01/13 11:44:18;;;;;;;37.05;20.77;;;20.90;60.80;;;;;;4896119;28;86971;-89
2023/01/13 11:46:45;;;;;;;35.78;19.75;;;20.90;61.10;;;;;;4887070;28;86131;-87
2023/01/13 11:49:25;;;;;;;35.47;19.67;;;21.00;61.20;;;;;;4895957;28;86201;-89
2023/01/13 11:52:07;;;;;;;33.15;19.17;;;21.00;61.20;;;;;;4894074;28;91291;-86
2023/01/13 11:54:55;;;;;;;33.15;17.83;;;21.10;60.80;;;;;;4878723;28;86385;-90
2023/01/13 11:57:47;;;;;;;33.55;19.13;;;21.00;61.10;;;;;;4895629;28;86576;-89
2023/01/13 12:00:34;;;;;;;34.03;19.70;;;21.00;61.00;;;;;;4895537;28;85751;-89
2023/01/13 12:03:34;;;;;;;31.83;19.00;;;21.00;61.10;;;;;;4884202;28;91407;-90
2023/01/13 12:06:26;;;;;;;34.80;18.02;;;20.90;61.00;;;;;;4894964;28;86897;-89
2023/01/13 12:09:19;;;;;;;33.38;19.10;;;20.80;61.10;;;;;;4849894;28;86137;-89
2023/01/13 12:14:57;;;;;;;32.42;17.33;;;20.90;61.30;;;;;;4883841;28;86763;-88
2023/01/13 12:17:47;;;;;;;27.70;17.15;;;20.90;61.50;;;;;;4875358;28;87500;-88
2023/01/13 12:20:43;;;;;;;32.42;17.65;;;20.90;61.50;;;;;;4875495;28;86727;-87
2023/01/13 12:23:40;;;;;;;32.83;17.50;;;20.90;61.60;;;;;;4876367;28;86010;-88
2023/01/13 12:26:14;;;;;;;27.95;17.35;;;20.80;61.40;;;;;;4876053;28;87617;-88
2023/01/13 12:28:45;;;;;;;27.70;17.52;;;20.90;61.50;;;;;;4876161;28;85756;-88
2023/01/13 12:31:12;;;;;;;29.35;17.10;;;20.90;61.30;;;;;;4876741;28;86638;-87
2023/01/13 12:34:09;;;;;;;26.95;17.75;;;20.90;61.30;;;;;;4883470;28;86425;-89
2023/01/13 12:36:47;;;;;;;28.48;16.70;;;20.90;61.30;;;;;;4819502;29;87590;-89
2023/01/13 12:39:18;;;;;;;26.73;16.42;;;20.90;61.30;;;;;;4834005;29;87323;-87
2023/01/13 12:44:35;;;;;;;20.05;11.40;;;20.90;58.40;;;;;;4829790;29;85869;-82
2023/01/13 12:47:01;;;;;;;23.20;12.60;;;20.80;58.00;;;;;;4851405;29;87732;-87
2023/01/13 12:49:29;;;;;;;24.98;12.85;;;20.90;58.80;;;;;;4855985;29;85906;-86
2023/01/13 12:51:54;;;;;;;23.08;13.00;;;21.00;59.00;;;;;;4857374;29;86359;-88
2023/01/13 12:54:29;;;;;;;26.23;13.15;;;21.00;59.10;;;;;;4886307;28;86531;-87
2023/01/13 12:56:55;;;;;;;21.92;13.50;;;21.00;59.30;;;;;;4913545;28;88124;-86
2023/01/13 12:59:21;;;;;;;23.88;13.45;;;21.00;59.50;;;;;;4911938;28;86380;-87
2023/01/13 13:02:10;;;;;;;22.90;12.50;;;21.00;59.30;;;;;;4913499;28;86179;-87
2023/01/13 13:04:50;;;;;;;29.02;12.65;;;21.00;59.60;;;;;;4912643;28;86267;-87
2023/01/13 13:07:25;;;;;;;22.02;12.43;;;21.00;59.20;;;;;;4897929;28;88928;-89
2023/01/13 13:10:16;;;;;;;19.50;11.85;;;21.00;59.40;;;;;;4914186;28;90970;-88
2023/01/13 13:15:29;;;;;;;20.90;11.93;;;21.00;59.70;;;;;;4971919;28;91120;-90
2023/01/13 13:17:58;;;;;;;21.38;12.57;;;21.00;60.40;;;;;;4971278;28;86771;-88
2023/01/13 13:21:01;;;;;;;19.95;11.93;;;21.10;59.50;;;;;;4971918;28;88451;-87
2023/01/13 13:23:33;;;;;;;21.38;11.80;;;21.10;59.70;;;;;;4972246;28;86801;-89
2023/01/13 13:26:11;;;;;;;20.25;11.00;;;21.00;59.60;;;;;;4972160;28;86745;-85
2023/01/13 13:28:39;;;;;;;18.95;10.35;;;21.10;59.50;;;;;;4970460;28;86119;-90
2023/01/13 13:31:32;;;;;;;17.42;10.77;;;21.10;59.70;;;;;;4972769;28;86573;-90
2023/01/13 13:34:21;;;;;;;18.60;11.13;;;21.00;59.90;;;;;;5001304;28;88485;-90
2023/01/13 13:37:03;;;;;;;15.95;10.15;;;20.90;59.70;;;;;;5006276;28;87352;-87
2023/01/13 13:48:24;;;;;;;22.13;11.55;;;21.00;59.60;;;;;;4969987;28;86371;-89
2023/01/13 13:50:59;;;;;;;22.50;10.50;;;21.00;59.80;;;;;;4980025;28;87944;-89
2023/01/13 13:53:31;;;;;;;20.92;10.75;;;21.10;59.90;;;;;;4989022;28;86397;-87
2023/01/13 13:56:00;;;;;;;20.73;11.43;;;21.10;59.90;;;;;;4988409;28;86247;-89
2023/01/13 13:58:28;;;;;;;18.27;9.43;;;21.20;60.00;;;;;;4989588;28;85939;-88
2023/01/13 14:00:55;;;;;;;22.48;9.73;;;21.20;59.80;;;;;;4989356;28;87140;-86
2023/01/13 14:03:20;;;;;;;20.92;10.18;;;21.30;59.60;;;;;;4989979;28;86639;-90
2023/01/13 14:06:04;;;;;;;18.80;9.80;;;21.40;59.70;;;;;;4991058;28;86193;-89
2023/01/13 14:08:36;;;;;;;17.30;10.10;;;21.40;59.50;;;;;;4992793;28;86450;-89
2023/01/13 14:11:25;;;;;;;20.30;10.52;;;21.40;59.50;;;;;;4991621;28;87489;-89